createdAt,value
2023-01-29T00:01:09.899Z,-1.36
2023-01-29T00:06:12.812Z,-1.36
2023-01-29T00:11:14.662Z,-1.39
2023-01-29T00:16:16.309Z,-1.39
2023-01-29T00:21:19.911Z,-1.41
2023-01-29T00:26:22.248Z,-1.42
2023-01-29T00:31:25.391Z,-1.44
2023-01-29T00:36:27.751Z,-1.44
2023-01-29T00:41:49.650Z,-1.44
2023-01-29T00:46:51.431Z,-1.46
2023-01-29T00:52:11.844Z,-1.48
2023-01-29T00:57:13.513Z,-1.48
2023-01-29T01:02:34.119Z,-1.50
2023-01-29T01:07:35.755Z,-1.49
2023-01-29T01:12:37.411Z,-1.51
2023-01-29T01:17:39.263Z,-1.48
2023-01-29T01:22:41.201Z,-1.47
2023-01-29T01:27:42.854Z,-1.50
2023-01-29T01:32:45.126Z,-1.51
2023-01-29T01:37:46.740Z,-1.53
2023-01-29T01:42:50.300Z,-1.53
2023-01-29T01:48:14.899Z,-1.55
2023-01-29T01:53:26.879Z,-1.61
2023-01-29T01:58:41.288Z,-1.62
2023-01-29T02:04:10.193Z,-1.67
2023-01-29T02:09:36.543Z,-1.70
2023-01-29T02:14:40.237Z,-1.76
2023-01-29T02:20:05.724Z,-1.80
2023-01-29T02:25:32.281Z,-1.92
2023-01-29T02:30:37.686Z,-2.02
2023-01-29T02:35:46.315Z,-2.11
2023-01-29T02:41:05.702Z,-2.20
2023-01-29T02:46:16.098Z,-2.28
2023-01-29T02:51:29.169Z,-2.31
2023-01-29T02:56:40.363Z,-2.41
2023-01-29T03:02:01.276Z,-2.48
2023-01-29T03:07:37.856Z,-2.50
2023-01-29T03:12:41.230Z,-2.50
2023-01-29T03:17:55.114Z,-2.48
2023-01-29T03:23:01.395Z,-2.43
2023-01-29T03:28:23.296Z,-2.40
2023-01-29T03:33:30.005Z,-2.45
2023-01-29T03:38:32.161Z,-2.51
2023-01-29T03:43:39.972Z,-2.56
2023-01-29T03:48:59.888Z,-2.62
2023-01-29T03:54:40.120Z,-2.75
2023-01-29T03:59:50.550Z,-2.82
2023-01-29T04:05:11.350Z,-2.87
2023-01-29T04:10:27.005Z,-2.94
2023-01-29T04:15:30.426Z,-2.97
2023-01-29T04:20:32.275Z,-3.00
2023-01-29T04:25:44.964Z,-3.00
2023-01-29T04:31:07.237Z,-3.05
2023-01-29T04:36:24.220Z,-3.09
2023-01-29T04:41:41.051Z,-3.13
2023-01-29T04:47:07.986Z,-3.09
2023-01-29T04:52:20.183Z,-3.12
2023-01-29T04:57:43.273Z,-3.14
2023-01-29T05:02:45.269Z,-3.13
2023-01-29T05:07:47.729Z,-3.17
2023-01-29T05:12:55.111Z,-3.17
2023-01-29T05:18:01.855Z,-3.17
2023-01-29T05:23:04.174Z,-3.24
2023-01-29T05:28:06.402Z,-3.28
2023-01-29T05:33:19.097Z,-3.31
2023-01-29T05:38:21.312Z,-3.26
2023-01-29T05:43:24.483Z,-3.33
2023-01-29T05:48:28.760Z,-3.31
2023-01-29T05:53:31.057Z,-3.39
2023-01-29T05:58:33.624Z,-3.35
2023-01-29T06:03:35.268Z,-3.31
2023-01-29T06:08:36.965Z,-3.19
2023-01-29T06:13:38.783Z,-3.21
2023-01-29T06:18:40.947Z,-3.25
2023-01-29T06:23:42.708Z,-3.17
2023-01-29T06:28:45.932Z,-2.99
2023-01-29T06:33:47.648Z,-2.86
2023-01-29T06:38:49.396Z,-2.76
2023-01-29T06:43:51.477Z,-2.69
2023-01-29T06:48:53.104Z,-2.68
2023-01-29T06:53:56.135Z,-2.61
2023-01-29T06:58:58.209Z,-2.52
2023-01-29T07:03:59.863Z,-2.42
2023-01-29T07:09:01.867Z,-2.33
2023-01-29T07:14:04.071Z,-2.24
2023-01-29T07:19:05.704Z,-2.16
2023-01-29T07:24:07.530Z,-2.13
2023-01-29T07:29:09.161Z,-2.11
2023-01-29T07:34:10.817Z,-2.12
2023-01-29T07:39:12.518Z,-2.04
2023-01-29T07:44:14.427Z,-2.06
2023-01-29T07:49:19.580Z,-1.96
2023-01-29T07:54:21.214Z,-1.80
2023-01-29T07:59:23.215Z,-1.68
2023-01-29T08:04:24.999Z,-1.52
2023-01-29T08:09:26.697Z,-1.39
2023-01-29T08:14:28.320Z,-1.53
2023-01-29T08:19:29.979Z,-1.49
2023-01-29T08:24:41.826Z,-1.34
2023-01-29T08:29:53.281Z,-1.20
2023-01-29T08:34:54.902Z,-1.09
2023-01-29T08:39:56.580Z,-0.99
2023-01-29T08:44:58.204Z,-0.94
2023-01-29T08:49:59.908Z,-0.96
2023-01-29T08:55:01.547Z,-0.83
2023-01-29T09:00:04.251Z,-0.83
2023-01-29T09:05:06.412Z,-0.67
2023-01-29T09:10:08.770Z,-0.82
2023-01-29T09:15:10.979Z,-0.93
2023-01-29T09:20:12.641Z,-0.78
2023-01-29T09:25:14.805Z,-0.81
2023-01-29T09:30:17.420Z,-0.71
2023-01-29T09:35:19.143Z,-0.79
2023-01-29T09:40:51.714Z,-0.54
2023-01-29T09:46:05.066Z,-0.40
2023-01-29T09:51:15.572Z,-0.27
2023-01-29T09:56:20.736Z,-0.23
2023-01-29T10:01:34.579Z,-0.15
2023-01-29T10:06:58.843Z,-0.32
2023-01-29T10:12:32.748Z,-0.15
2023-01-29T10:18:13.028Z,-0.05
2023-01-29T10:23:17.355Z,0.11
2023-01-29T10:28:46.430Z,0.22
2023-01-29T10:34:02.081Z,0.23
2023-01-29T10:39:04.309Z,0.48
2023-01-29T10:44:31.031Z,0.44
2023-01-29T10:49:57.671Z,0.54
2023-01-29T10:55:12.328Z,0.42
2023-01-29T11:00:31.138Z,0.43
2023-01-29T11:06:11.793Z,0.24
2023-01-29T11:11:17.210Z,0.12
2023-01-29T11:16:18.979Z,0.11
2023-01-29T11:21:21.044Z,-0.03
2023-01-29T11:26:23.978Z,0.02
2023-01-29T11:31:27.257Z,0.08
2023-01-29T11:36:33.145Z,0.23
2023-01-29T11:41:43.809Z,0.42
2023-01-29T11:46:45.864Z,0.48
2023-01-29T11:51:52.237Z,0.51
2023-01-29T11:56:54.455Z,0.88
2023-01-29T12:01:56.720Z,1.16
2023-01-29T12:06:58.524Z,1.15
2023-01-29T12:12:17.932Z,1.43
2023-01-29T12:17:23.998Z,1.58
2023-01-29T12:22:47.288Z,1.67
2023-01-29T12:28:00.465Z,1.70
2023-01-29T12:33:05.195Z,1.58
2023-01-29T12:38:23.421Z,1.37
2023-01-29T12:43:42.384Z,1.36
2023-01-29T12:48:44.382Z,0.98
2023-01-29T12:53:57.776Z,1.17
2023-01-29T12:58:59.686Z,1.26
2023-01-29T13:04:15.152Z,1.07
2023-01-29T13:09:23.779Z,1.13
2023-01-29T13:14:31.697Z,1.13
2023-01-29T13:19:38.155Z,1.31
2023-01-29T13:24:41.285Z,1.36
2023-01-29T13:29:43.551Z,1.49
2023-01-29T13:34:47.450Z,1.53
2023-01-29T13:39:51.301Z,1.63
2023-01-29T13:44:55.307Z,1.45
2023-01-29T13:50:02.241Z,1.33
2023-01-29T13:55:30.982Z,1.32
2023-01-29T14:00:35.649Z,1.30
2023-01-29T14:06:00.129Z,1.27
2023-01-29T14:11:34.824Z,1.22
2023-01-29T14:16:36.616Z,1.22
2023-01-29T14:21:39.586Z,1.11
2023-01-29T14:26:43.891Z,1.14
2023-01-29T14:31:58.657Z,1.07
2023-01-29T14:37:15.834Z,1.17
2023-01-29T14:42:34.453Z,1.11
2023-01-29T14:47:39.124Z,1.02
2023-01-29T14:52:42.800Z,1.06
2023-01-29T14:57:45.357Z,1.13
2023-01-29T15:02:48.321Z,1.07
2023-01-29T15:08:13.117Z,1.08
2023-01-29T15:13:31.299Z,0.95
2023-01-29T15:18:43.265Z,0.85
2023-01-29T15:23:45.891Z,0.68
2023-01-29T15:29:03.627Z,0.59
2023-01-29T15:34:07.754Z,0.48
2023-01-29T15:39:09.427Z,0.44
2023-01-29T15:44:16.831Z,0.31
2023-01-29T15:49:26.063Z,0.17
2023-01-29T15:54:31.103Z,0.09
2023-01-29T15:59:36.735Z,0.07
2023-01-29T16:04:38.462Z,0.10
2023-01-29T16:09:40.237Z,0.13
2023-01-29T16:14:42.325Z,0.17
2023-01-29T16:19:44.050Z,0.18
2023-01-29T16:24:48.012Z,0.20
2023-01-29T16:29:49.675Z,0.23
2023-01-29T16:34:56.883Z,0.25
2023-01-29T16:39:58.854Z,0.22
2023-01-29T16:45:05.453Z,0.20
2023-01-29T16:50:24.055Z,0.24
2023-01-29T16:55:26.487Z,0.22
2023-01-29T17:00:29.568Z,0.24
2023-01-29T17:05:33.872Z,0.24
2023-01-29T17:10:36.234Z,0.21
2023-01-29T17:15:47.589Z,0.19
2023-01-29T17:20:49.975Z,0.16
2023-01-29T17:25:51.938Z,0.16
2023-01-29T17:31:05.523Z,0.12
2023-01-29T17:36:13.335Z,0.11
2023-01-29T17:41:28.043Z,0.08
2023-01-29T17:46:31.405Z,0.06
2023-01-29T17:51:33.137Z,0.05
2023-01-29T17:56:34.821Z,0.00
2023-01-29T18:01:36.423Z,-0.02
2023-01-29T18:06:38.662Z,-0.05
2023-01-29T18:11:41.029Z,-0.10
2023-01-29T18:16:44.087Z,-0.13
2023-01-29T18:21:45.691Z,-0.17
2023-01-29T18:26:48.774Z,-0.19
2023-01-29T18:31:50.839Z,-0.21
2023-01-29T18:36:52.587Z,-0.25
2023-01-29T18:41:54.291Z,-0.26
2023-01-29T18:46:56.191Z,-0.29
2023-01-29T18:51:57.836Z,-0.37
2023-01-29T18:57:13.145Z,-0.39
2023-01-29T19:02:19.341Z,-0.42
2023-01-29T19:07:21.274Z,-0.43
2023-01-29T19:12:23.748Z,-0.44
2023-01-29T19:17:25.740Z,-0.45
2023-01-29T19:22:30.849Z,-0.44
2023-01-29T19:27:32.643Z,-0.48
2023-01-29T19:32:34.666Z,-0.47
2023-01-29T19:37:36.358Z,-0.47
2023-01-29T19:42:38.400Z,-0.52
2023-01-29T19:47:41.269Z,-0.52
2023-01-29T19:52:51.804Z,-0.56
2023-01-29T19:57:54.800Z,-0.56
2023-01-29T20:02:56.447Z,-0.58
2023-01-29T20:07:58.594Z,-0.63
2023-01-29T20:13:00.480Z,-0.69
2023-01-29T20:18:02.744Z,-0.77
2023-01-29T20:23:04.565Z,-0.87
2023-01-29T20:28:08.202Z,-1.01
2023-01-29T20:33:10.427Z,-1.14
2023-01-29T20:38:12.354Z,-1.20
2023-01-29T20:43:14.154Z,-1.27
2023-01-29T20:48:15.836Z,-1.27
2023-01-29T20:53:17.566Z,-1.28
2023-01-29T20:58:19.287Z,-1.34
2023-01-29T21:03:20.945Z,-1.39
2023-01-29T21:08:22.747Z,-1.46
2023-01-29T21:13:25.522Z,-1.52
2023-01-29T21:18:27.242Z,-1.52
2023-01-29T21:23:28.980Z,-1.52
2023-01-29T21:28:30.669Z,-1.49
2023-01-29T21:33:33.720Z,-1.45
2023-01-29T21:38:35.956Z,-1.44
2023-01-29T21:43:37.923Z,-1.40
2023-01-29T21:48:40.372Z,-1.38
2023-01-29T21:53:42.001Z,-1.34
2023-01-29T21:58:43.614Z,-1.28
2023-01-29T22:03:47.179Z,-1.27
2023-01-29T22:08:49.629Z,-1.23
2023-01-29T22:13:51.366Z,-1.29
2023-01-29T22:18:53.018Z,-1.27
2023-01-29T22:23:54.644Z,-1.28
2023-01-29T22:28:56.778Z,-1.24
2023-01-29T22:33:58.419Z,-1.19
2023-01-29T22:39:00.034Z,-1.16
2023-01-29T22:44:01.804Z,-1.16
2023-01-29T22:49:03.519Z,-1.13
2023-01-29T22:54:05.299Z,-1.10
2023-01-29T22:59:06.932Z,-1.13
2023-01-29T23:04:08.969Z,-1.17
2023-01-29T23:09:10.631Z,-1.16
2023-01-29T23:14:12.265Z,-1.13
2023-01-29T23:19:13.983Z,-1.11
2023-01-29T23:24:15.673Z,-1.08
2023-01-29T23:29:17.378Z,-1.02
2023-01-29T23:34:19.098Z,-0.98
2023-01-29T23:39:20.916Z,-0.97
2023-01-29T23:44:22.583Z,-0.95
2023-01-29T23:49:24.285Z,-0.92
2023-01-29T23:54:25.888Z,-0.89
2023-01-29T23:59:28.892Z,-0.84
